This is the latest recevied weather packets stored in our database for station/object WK7G. If no packets are shown the sender has not sent any weather packets the latest 10 day(s).
| Time | Temp. | Humidity | Pressure | Rain* | Wind** | Luminosity | Snow |
|---|---|---|---|---|---|---|---|
| 1777494805 | 5° C | 71% | 1013.7 hPa | 0 mm | - | 82 W/m² | - |
| 1777494502 | 5° C | 65% | 1013.7 hPa | 0 mm | - | 96 W/m² | - |
| 1777494199 | 5.56° C | 66% | 1013.3 hPa | 0 mm | - | 114 W/m² | - |
| 1777493896 | 5.56° C | 65% | 1013.6 hPa | 0 mm | - | 147 W/m² | - |
| 1777492988 | 6.11° C | 65% | 1013.3 hPa | 0 mm | - | 223 W/m² | - |
| 1777492685 | 7.22° C | 64% | 1013.5 hPa | 0 mm | - | 269 W/m² | - |
| 1777492385 | 9.44° C | 61% | 1013.3 hPa | 0 mm | - | 278 W/m² | - |
| 1777491475 | 8.89° C | 47% | 1013.4 hPa | 0 mm | - | 996 W/m² | - |
| 1777491173 | 8.33° C | 57% | 1013.4 hPa | 0 mm | - | 880 W/m² | - |
| 1777490868 | 8.89° C | 58% | 1013.4 hPa | 0 mm | - | 830 W/m² | - |
| 1777490564 | 9.44° C | 56% | 1013.4 hPa | 0 mm | - | 831 W/m² | - |
| 1777490261 | 9.44° C | 53% | 1013.4 hPa | 0 mm | - | 852 W/m² | - |
| 1777489959 | 8.89° C | 52% | 1013.5 hPa | 0 mm | - | 891 W/m² | - |
| 1777489657 | 9.44° C | 54% | 1013.3 hPa | 0 mm | - | 900 W/m² | - |
| 1777489050 | 8.89° C | 52% | 1013.9 hPa | 0 mm | - | 1051 W/m² | - |
| 1777488444 | 8.89° C | 51% | 1013.7 hPa | 0 mm | - | 825 W/m² | - |
| 1777487840 | 8.33° C | 53% | 1013.9 hPa | 0 mm | - | 1046 W/m² | - |
| 1777487538 | 8.33° C | 55% | 1013.7 hPa | 0 mm | - | 985 W/m² | - |
| 1777487235 | 7.78° C | 55% | 1013.5 hPa | 0 mm | - | 977 W/m² | - |
| 1777486931 | 7.78° C | 56% | 1014 hPa | 0 mm | - | 752 W/m² | - |
| 1777486628 | 6.67° C | 57% | 1013.6 hPa | 0 mm | - | 572 W/m² | - |
| 1777486326 | 6.11° C | 55% | 1013.5 hPa | 0 mm | - | 294 W/m² | - |
| 1777485720 | 6.11° C | 58% | 1013.4 hPa | 0 mm | - | 165 W/m² | - |
| 1777485116 | 6.67° C | 52% | 1013.6 hPa | 0 mm | - | 137 W/m² | - |
| 1777483903 | 7.78° C | 52% | 1013.3 hPa | 0 mm | - | 285 W/m² | - |
* Rain latest hour (hover to see other rain measurements)
** Current wind speed in m/s (hover to see current wind gust speed)